createdAt,value
2022-11-21T00:02:24.001Z,9.30
2022-11-21T00:05:11.787Z,9.10
2022-11-21T00:07:52.913Z,8.90
2022-11-21T00:10:43.853Z,8.80
2022-11-21T00:13:26.977Z,8.70
2022-11-21T00:16:15.777Z,8.60
2022-11-21T00:19:03.835Z,8.90
2022-11-21T00:21:45.251Z,9.20
2022-11-21T00:24:32.772Z,9.00
2022-11-21T00:27:16.005Z,9.10
2022-11-21T00:30:03.774Z,9.10
2022-11-21T00:32:45.312Z,9.10
2022-11-21T00:35:32.887Z,9.00
2022-11-21T00:38:14.869Z,8.90
2022-11-21T00:41:02.755Z,8.90
2022-11-21T00:43:45.608Z,8.80
2022-11-21T00:46:32.774Z,8.80
2022-11-21T00:49:20.863Z,8.90
2022-11-21T00:52:02.031Z,9.10
2022-11-21T00:54:49.807Z,9.00
2022-11-21T00:57:44.776Z,9.10
2022-11-21T01:00:33.815Z,9.10
2022-11-21T01:03:15.788Z,9.10
2022-11-21T01:06:07.781Z,9.00
2022-11-21T01:08:50.028Z,9.00
2022-11-21T01:11:37.788Z,9.10
2022-11-21T01:14:26.164Z,9.20
2022-11-21T01:17:08.555Z,9.10
2022-11-21T01:19:55.758Z,9.10
2022-11-21T01:22:37.275Z,9.00
2022-11-21T01:25:25.855Z,9.10
2022-11-21T01:28:07.284Z,9.00
2022-11-21T01:30:55.783Z,8.90
2022-11-21T01:33:39.029Z,8.80
2022-11-21T01:36:27.785Z,8.70
2022-11-21T01:39:09.145Z,8.70
2022-11-21T01:41:59.103Z,8.70
2022-11-21T01:44:54.782Z,8.70
2022-11-21T01:47:36.045Z,8.60
2022-11-21T01:50:25.786Z,8.70
2022-11-21T01:53:07.913Z,8.80
2022-11-21T01:55:56.153Z,8.60
2022-11-21T01:58:44.940Z,8.70
2022-11-21T02:01:26.848Z,8.80
2022-11-21T02:04:08.807Z,8.90
2022-11-21T02:06:58.910Z,8.90
2022-11-21T02:09:42.317Z,9.00
2022-11-21T02:12:32.998Z,8.90
2022-11-21T02:15:22.823Z,9.00
2022-11-21T02:18:05.036Z,8.90
2022-11-21T02:20:54.966Z,9.00
2022-11-21T02:23:43.045Z,8.80
2022-11-21T02:26:32.870Z,8.60
2022-11-21T02:29:14.878Z,8.70
2022-11-21T02:32:02.842Z,8.80
2022-11-21T02:34:43.983Z,8.60
2022-11-21T02:37:31.917Z,8.80
2022-11-21T02:40:15.994Z,9.00
2022-11-21T02:43:06.795Z,9.00
2022-11-21T02:45:50.075Z,8.90
2022-11-21T02:48:37.799Z,9.00
2022-11-21T02:51:25.863Z,8.90
2022-11-21T02:54:07.165Z,8.90
2022-11-21T02:56:55.863Z,9.00
2022-11-21T02:59:38.584Z,9.00
2022-11-21T03:02:25.813Z,8.70
2022-11-21T03:05:08.744Z,8.70
2022-11-21T03:07:56.858Z,8.70
2022-11-21T03:10:38.336Z,8.60
2022-11-21T03:13:25.847Z,8.40
2022-11-21T03:16:08.583Z,8.50
2022-11-21T03:18:55.872Z,8.50
2022-11-21T03:21:43.848Z,8.40
2022-11-21T03:24:25.192Z,8.50
2022-11-21T03:27:14.151Z,8.50
2022-11-21T03:29:54.998Z,8.60
2022-11-21T03:32:43.819Z,8.60
2022-11-21T03:35:25.095Z,8.60
2022-11-21T03:38:12.818Z,8.50
2022-11-21T03:40:54.035Z,8.40
2022-11-21T03:43:41.887Z,8.20
2022-11-21T03:46:24.042Z,8.20
2022-11-21T03:49:14.113Z,8.20
2022-11-21T03:52:01.910Z,8.40
2022-11-21T03:54:43.248Z,8.40
2022-11-21T03:57:30.809Z,8.20
2022-11-21T04:00:13.024Z,8.30
2022-11-21T04:03:00.792Z,8.20
2022-11-21T04:05:45.146Z,8.10
2022-11-21T04:08:32.830Z,8.10
2022-11-21T04:11:14.697Z,8.10
2022-11-21T04:14:02.830Z,8.10
2022-11-21T04:16:44.264Z,8.20
2022-11-21T04:19:31.834Z,8.20
2022-11-21T04:22:20.804Z,8.10
2022-11-21T04:25:02.023Z,7.90
2022-11-21T04:27:49.900Z,8.00
2022-11-21T04:30:31.067Z,8.00
2022-11-21T04:33:18.842Z,8.00
2022-11-21T04:36:00.064Z,8.00
2022-11-21T04:38:48.845Z,8.00
2022-11-21T04:41:30.084Z,8.10
2022-11-21T04:44:17.827Z,8.00
2022-11-21T04:47:06.935Z,8.00
2022-11-21T04:49:49.211Z,8.20
2022-11-21T04:52:36.866Z,8.30
2022-11-21T04:55:19.650Z,8.30
2022-11-21T04:58:06.926Z,8.30
2022-11-21T05:00:49.406Z,8.20
2022-11-21T05:03:36.863Z,8.10
2022-11-21T05:06:18.187Z,8.30
2022-11-21T05:09:05.940Z,8.40
2022-11-21T05:12:06.232Z,8.10
2022-11-21T05:14:53.835Z,8.10
2022-11-21T05:17:48.848Z,8.20
2022-11-21T05:20:33.321Z,8.30
2022-11-21T05:23:23.859Z,8.30
2022-11-21T05:26:05.243Z,8.20
2022-11-21T05:28:54.892Z,8.40
2022-11-21T05:31:36.182Z,8.40
2022-11-21T05:34:23.846Z,8.30
2022-11-21T05:37:05.350Z,8.50
2022-11-21T05:39:52.829Z,8.70
2022-11-21T05:42:57.951Z,8.50
2022-11-21T05:45:41.007Z,8.30
2022-11-21T05:48:28.923Z,8.50
2022-11-21T05:51:10.086Z,8.70
2022-11-21T05:53:57.811Z,8.70
2022-11-21T05:56:39.099Z,8.60
2022-11-21T05:59:26.831Z,8.70
2022-11-21T06:02:27.919Z,8.70
2022-11-21T06:05:15.850Z,8.50
2022-11-21T06:07:57.030Z,8.20
2022-11-21T06:10:45.006Z,7.90
2022-11-21T06:13:32.840Z,8.10
2022-11-21T06:16:16.107Z,8.10
2022-11-21T06:19:06.846Z,8.20
2022-11-21T06:21:49.311Z,8.00
2022-11-21T06:24:36.938Z,8.00
2022-11-21T06:27:18.353Z,7.90
2022-11-21T06:30:06.877Z,7.70
2022-11-21T06:32:49.444Z,7.60
2022-11-21T06:35:38.883Z,7.60
2022-11-21T06:38:20.386Z,7.70
2022-11-21T06:41:07.904Z,7.50
2022-11-21T06:43:49.394Z,7.50
2022-11-21T06:46:36.877Z,7.40
2022-11-21T06:49:24.884Z,7.50
2022-11-21T06:52:08.077Z,7.50
2022-11-21T06:54:55.905Z,7.60
2022-11-21T06:57:37.049Z,7.60
2022-11-21T07:00:24.925Z,7.50
2022-11-21T07:03:08.101Z,7.50
2022-11-21T07:05:55.907Z,7.20
2022-11-21T07:08:40.787Z,7.20
2022-11-21T07:11:28.899Z,7.00
2022-11-21T07:14:09.660Z,7.00
2022-11-21T07:16:51.867Z,7.30
2022-11-21T07:19:36.275Z,7.30
2022-11-21T07:22:25.882Z,7.30
2022-11-21T07:25:16.205Z,7.20
2022-11-21T07:27:57.129Z,7.40
2022-11-21T07:30:44.923Z,7.60
2022-11-21T07:33:26.143Z,7.80
2022-11-21T07:36:13.932Z,7.60
2022-11-21T07:38:55.081Z,7.70
2022-11-21T07:41:43.970Z,7.90
2022-11-21T07:44:25.020Z,7.80
2022-11-21T07:47:12.949Z,7.90
2022-11-21T07:49:54.107Z,7.80
2022-11-21T07:52:41.893Z,7.90
2022-11-21T07:55:31.350Z,7.80
2022-11-21T07:58:24.191Z,7.80
2022-11-21T08:01:04.885Z,7.90
2022-11-21T08:03:46.303Z,7.90
2022-11-21T08:06:33.891Z,7.90
2022-11-21T08:09:17.460Z,8.10
2022-11-21T08:12:04.921Z,8.20
2022-11-21T08:14:47.617Z,8.00
2022-11-21T08:17:34.907Z,7.90
2022-11-21T08:20:17.306Z,7.90
2022-11-21T08:23:04.916Z,7.70
2022-11-21T08:25:52.928Z,7.70
2022-11-21T08:28:34.168Z,7.70
2022-11-21T08:31:24.028Z,7.80
2022-11-21T08:34:06.423Z,7.80
2022-11-21T08:36:55.971Z,7.70
2022-11-21T08:39:37.173Z,7.80
2022-11-21T08:42:24.897Z,7.80
2022-11-21T08:45:06.209Z,7.80
2022-11-21T08:47:54.967Z,7.90
2022-11-21T08:50:36.135Z,8.10
2022-11-21T08:53:17.895Z,8.00
2022-11-21T08:56:05.892Z,8.10
2022-11-21T08:59:00.906Z,8.40
2022-11-21T09:01:49.007Z,8.40
2022-11-21T09:04:32.093Z,8.40
2022-11-21T09:07:19.961Z,8.40
2022-11-21T09:10:01.162Z,8.30
2022-11-21T09:12:48.992Z,8.60
2022-11-21T09:15:53.919Z,8.90
2022-11-21T09:18:42.165Z,9.10
2022-11-21T09:21:25.969Z,9.00
2022-11-21T09:24:07.621Z,9.10
2022-11-21T09:26:55.934Z,9.20
2022-11-21T09:29:37.540Z,9.40
2022-11-21T09:32:24.917Z,9.40
2022-11-21T09:35:06.748Z,9.30
2022-11-21T09:37:58.972Z,9.30
2022-11-21T09:40:43.133Z,9.30
2022-11-21T09:43:44.933Z,9.10
2022-11-21T09:46:30.395Z,9.20
2022-11-21T09:49:20.946Z,9.10
2022-11-21T09:52:08.942Z,9.30
2022-11-21T09:54:55.137Z,9.30
2022-11-21T09:57:42.953Z,9.30
2022-11-21T10:00:28.174Z,9.20
2022-11-21T10:03:23.942Z,9.20
2022-11-21T10:06:07.216Z,9.40
2022-11-21T10:09:03.156Z,9.10
2022-11-21T10:12:08.024Z,8.90
2022-11-21T10:15:01.058Z,9.10
2022-11-21T10:17:51.267Z,9.00
2022-11-21T10:20:48.938Z,9.00
2022-11-21T10:23:48.984Z,9.20
2022-11-21T10:26:43.255Z,9.30
2022-11-21T10:29:28.064Z,9.30
2022-11-21T10:32:14.853Z,9.40
2022-11-21T10:35:06.027Z,9.60
2022-11-21T10:37:49.283Z,9.70
2022-11-21T10:40:47.019Z,9.80
2022-11-21T10:43:58.653Z,9.60
2022-11-21T10:46:48.077Z,9.60
2022-11-21T10:49:31.274Z,9.80
2022-11-21T10:52:20.938Z,9.70
2022-11-21T10:55:08.398Z,10.00
2022-11-21T10:57:57.958Z,10.30
2022-11-21T11:00:57.149Z,10.50
2022-11-21T11:04:01.137Z,10.20
2022-11-21T11:06:55.987Z,10.30
2022-11-21T11:09:38.730Z,10.20
2022-11-21T11:12:57.053Z,10.20
2022-11-21T11:15:39.273Z,10.30
2022-11-21T11:18:27.997Z,10.60
2022-11-21T11:21:22.233Z,10.50
2022-11-21T11:24:28.030Z,10.60
2022-11-21T11:27:10.150Z,10.80
2022-11-21T11:29:59.050Z,11.00
2022-11-21T11:32:41.432Z,11.00
2022-11-21T11:35:31.042Z,10.90
2022-11-21T11:38:17.118Z,10.90
2022-11-21T11:41:06.957Z,10.90
2022-11-21T11:44:12.635Z,11.00
2022-11-21T11:47:22.027Z,11.00
2022-11-21T11:50:15.028Z,10.90
2022-11-21T11:53:07.958Z,11.00
2022-11-21T11:55:59.971Z,10.80
2022-11-21T11:58:50.329Z,10.80
2022-11-21T12:01:35.069Z,10.60
2022-11-21T12:04:18.058Z,10.40
2022-11-21T12:10:13.502Z,10.60
2022-11-21T12:13:05.047Z,10.50
2022-11-21T12:15:52.773Z,10.50
2022-11-21T12:18:47.120Z,10.80
2022-11-21T12:21:29.027Z,10.70
2022-11-21T12:24:17.966Z,10.70
2022-11-21T12:27:04.578Z,10.90
2022-11-21T12:29:57.986Z,11.00
2022-11-21T12:33:07.829Z,10.90
2022-11-21T12:36:18.279Z,11.20
2022-11-21T12:39:20.973Z,11.40
2022-11-21T12:42:25.543Z,11.30
2022-11-21T12:45:24.041Z,11.50
2022-11-21T12:48:30.753Z,11.70
2022-11-21T12:51:54.092Z,11.70
2022-11-21T12:54:45.243Z,11.50
2022-11-21T12:57:34.028Z,11.50
2022-11-21T13:00:28.184Z,11.50
2022-11-21T13:03:20.987Z,11.40
2022-11-21T13:06:03.318Z,11.30
2022-11-21T13:08:52.045Z,11.30
2022-11-21T13:12:04.012Z,11.40
2022-11-21T13:14:49.187Z,11.70
2022-11-21T13:17:49.570Z,11.60
2022-11-21T13:20:36.271Z,11.60
2022-11-21T13:23:44.041Z,11.70
2022-11-21T13:26:44.268Z,11.70
2022-11-21T13:29:32.064Z,11.70
2022-11-21T13:32:28.155Z,11.50
2022-11-21T13:35:31.101Z,11.30
2022-11-21T13:38:15.096Z,11.30
2022-11-21T13:41:21.084Z,11.00
2022-11-21T13:44:35.335Z,10.90
2022-11-21T13:47:45.605Z,11.00
2022-11-21T13:50:49.012Z,11.10
2022-11-21T13:53:45.234Z,11.10
2022-11-21T13:56:34.004Z,11.30
2022-11-21T13:59:39.988Z,11.30
2022-11-21T14:02:45.008Z,11.60
2022-11-21T14:05:37.202Z,11.70
2022-11-21T14:08:27.133Z,11.80
2022-11-21T14:11:26.253Z,11.90
2022-11-21T14:14:16.067Z,11.70
2022-11-21T14:17:00.286Z,11.80
2022-11-21T14:19:49.670Z,11.70
2022-11-21T14:22:37.046Z,11.60
2022-11-21T14:25:30.025Z,11.60
2022-11-21T14:28:17.334Z,11.50
2022-11-21T14:31:07.145Z,11.60
2022-11-21T14:33:57.074Z,11.50
2022-11-21T14:36:39.650Z,11.40
2022-11-21T14:39:42.166Z,11.50
2022-11-21T14:42:25.483Z,11.50
2022-11-21T14:45:23.117Z,11.50
2022-11-21T14:48:06.901Z,11.50
2022-11-21T14:50:57.107Z,11.40
2022-11-21T14:53:41.003Z,11.50
2022-11-21T14:56:35.064Z,11.30
2022-11-21T14:59:36.017Z,11.30
2022-11-21T15:02:26.030Z,11.40
2022-11-21T15:05:08.274Z,11.30
2022-11-21T15:08:10.739Z,11.10
2022-11-21T15:11:04.079Z,11.10
2022-11-21T15:14:17.549Z,11.10
2022-11-21T15:16:56.043Z,11.10
2022-11-21T15:19:38.923Z,11.30
2022-11-21T15:22:35.167Z,11.40
2022-11-21T15:25:19.479Z,11.40
2022-11-21T15:28:20.110Z,11.40
2022-11-21T15:31:18.427Z,11.20
2022-11-21T15:37:24.132Z,11.50
2022-11-21T15:40:05.294Z,11.10
2022-11-21T15:42:53.103Z,11.10
2022-11-21T15:45:34.237Z,11.40
2022-11-21T15:48:23.040Z,11.40
2022-11-21T15:51:05.287Z,11.30
2022-11-21T15:53:54.059Z,11.20
2022-11-21T15:56:36.241Z,11.30
2022-11-21T15:59:24.013Z,11.30
2022-11-21T16:02:05.241Z,11.20
2022-11-21T16:04:53.028Z,11.00
2022-11-21T16:07:34.414Z,11.00
2022-11-21T16:10:27.726Z,11.10
2022-11-21T16:13:09.289Z,11.10
2022-11-21T16:15:57.095Z,11.10
2022-11-21T16:18:47.028Z,11.20
2022-11-21T16:21:28.625Z,11.10
2022-11-21T16:24:16.124Z,11.20
2022-11-21T16:26:58.884Z,11.20
2022-11-21T16:29:47.098Z,11.10
2022-11-21T16:32:28.647Z,11.30
2022-11-21T16:35:16.047Z,11.20
2022-11-21T16:37:57.497Z,11.20
2022-11-21T16:40:45.118Z,11.30
2022-11-21T16:43:28.260Z,11.20
2022-11-21T16:46:21.091Z,11.10
2022-11-21T16:49:10.050Z,11.00
2022-11-21T16:51:51.243Z,10.90
2022-11-21T16:54:39.058Z,10.90
2022-11-21T16:57:20.199Z,10.90
2022-11-21T17:00:11.132Z,10.90
2022-11-21T17:02:52.284Z,10.90
2022-11-21T17:05:40.121Z,10.90
2022-11-21T17:08:21.484Z,10.90
2022-11-21T17:11:19.161Z,11.00
2022-11-21T17:14:07.193Z,10.90
2022-11-21T17:16:51.156Z,10.90
2022-11-21T17:19:39.108Z,10.80
2022-11-21T17:22:24.605Z,10.80
2022-11-21T17:25:13.130Z,10.80
2022-11-21T17:27:54.481Z,10.80
2022-11-21T17:30:47.145Z,10.80
2022-11-21T17:33:31.145Z,10.70
2022-11-21T17:36:20.096Z,10.70
2022-11-21T17:39:01.731Z,10.70
2022-11-21T17:41:49.067Z,10.70
2022-11-21T17:44:37.139Z,10.60
2022-11-21T17:47:18.374Z,10.50
2022-11-21T17:50:07.133Z,10.60
2022-11-21T17:52:50.207Z,10.50
2022-11-21T17:55:38.084Z,10.50
2022-11-21T17:58:19.394Z,10.60
2022-11-21T18:01:08.187Z,10.40
2022-11-21T18:03:49.311Z,10.50
2022-11-21T18:06:41.091Z,10.50
2022-11-21T18:09:22.430Z,10.60
2022-11-21T18:12:10.241Z,10.60
2022-11-21T18:14:58.115Z,10.50
2022-11-21T18:17:39.611Z,10.50
2022-11-21T18:20:28.075Z,10.50
2022-11-21T18:23:11.055Z,10.50
2022-11-21T18:25:59.149Z,10.50
2022-11-21T18:28:40.654Z,10.40
2022-11-21T18:31:31.147Z,10.30
2022-11-21T18:34:13.227Z,10.50
2022-11-21T18:37:01.089Z,10.50
2022-11-21T18:39:43.890Z,10.60
2022-11-21T18:42:31.129Z,10.60
2022-11-21T18:45:19.144Z,10.50
2022-11-21T18:48:00.441Z,10.40
2022-11-21T18:50:48.083Z,10.50
2022-11-21T18:53:29.459Z,10.40
2022-11-21T18:56:19.152Z,10.50
2022-11-21T18:59:01.959Z,10.60
2022-11-21T19:01:50.226Z,10.50
2022-11-21T19:04:31.283Z,10.50
2022-11-21T19:07:19.213Z,10.40
2022-11-21T19:10:40.920Z,10.20
2022-11-21T19:13:10.014Z,10.20
2022-11-21T19:15:59.190Z,10.20
2022-11-21T19:18:44.374Z,10.10
2022-11-21T19:21:34.164Z,10.10
2022-11-21T19:24:16.433Z,10.20
2022-11-21T19:27:04.234Z,10.20
2022-11-21T19:29:47.305Z,10.20
2022-11-21T19:32:35.070Z,10.20
2022-11-21T19:35:18.103Z,10.00
2022-11-21T19:38:07.110Z,10.00
2022-11-21T19:41:13.164Z,10.00
2022-11-21T19:43:55.359Z,10.10
2022-11-21T19:46:45.195Z,10.10
2022-11-21T19:49:26.780Z,10.20
2022-11-21T19:52:16.228Z,10.30
2022-11-21T19:54:57.353Z,10.20
2022-11-21T19:57:45.182Z,9.90
2022-11-21T20:00:33.427Z,9.70
2022-11-21T20:03:16.133Z,9.50
2022-11-21T20:06:01.894Z,9.70
2022-11-21T20:08:50.137Z,9.90
2022-11-21T20:11:39.158Z,9.80
2022-11-21T20:14:22.707Z,9.90
2022-11-21T20:17:11.101Z,9.80
2022-11-21T20:19:54.427Z,9.90
2022-11-21T20:22:42.158Z,9.90
2022-11-21T20:25:24.337Z,9.70
2022-11-21T20:28:12.172Z,9.70
2022-11-21T20:30:54.336Z,9.50
2022-11-21T20:33:42.118Z,9.70
2022-11-21T20:36:26.414Z,9.60
2022-11-21T20:39:16.127Z,9.60
2022-11-21T20:42:04.154Z,9.60
2022-11-21T20:47:56.184Z,9.60
2022-11-21T20:51:39.563Z,9.60
2022-11-21T20:53:52.529Z,9.30
2022-11-21T20:56:35.537Z,9.40
2022-11-21T20:59:24.167Z,9.60
2022-11-21T21:02:05.695Z,9.40
2022-11-21T21:04:53.106Z,9.40
2022-11-21T21:07:34.574Z,9.40
2022-11-21T21:10:27.104Z,9.60
2022-11-21T21:13:16.196Z,9.70
2022-11-21T21:15:58.413Z,9.70
2022-11-21T21:18:52.197Z,9.80
2022-11-21T21:21:34.415Z,9.80
2022-11-21T21:24:24.231Z,9.90
2022-11-21T21:27:08.553Z,9.80
2022-11-21T21:29:56.202Z,10.20
2022-11-21T21:32:38.415Z,10.40
2022-11-21T21:35:26.129Z,10.20
2022-11-21T21:38:15.008Z,10.10
2022-11-21T21:40:56.625Z,10.50
2022-11-21T21:43:46.159Z,10.40
2022-11-21T21:46:28.197Z,10.30
2022-11-21T21:49:17.133Z,10.50
2022-11-21T21:51:58.544Z,10.40
2022-11-21T21:54:46.148Z,10.00
2022-11-21T21:57:27.601Z,10.10
2022-11-21T22:00:17.155Z,10.00
2022-11-21T22:02:58.704Z,9.90
2022-11-21T22:05:46.253Z,9.90
2022-11-21T22:08:34.192Z,10.00
2022-11-21T22:11:17.310Z,10.10
2022-11-21T22:14:06.161Z,10.00
2022-11-21T22:16:49.608Z,10.00
2022-11-21T22:19:37.224Z,10.00
2022-11-21T22:22:18.389Z,9.90
2022-11-21T22:25:06.219Z,9.90
2022-11-21T22:27:48.420Z,9.90
2022-11-21T22:30:36.230Z,9.80
2022-11-21T22:33:26.258Z,9.80
2022-11-21T22:36:08.444Z,10.00
2022-11-21T22:38:57.244Z,9.90
2022-11-21T22:41:38.527Z,9.80
2022-11-21T22:44:26.296Z,9.50
2022-11-21T22:47:07.588Z,9.60
2022-11-21T22:49:58.259Z,9.70
2022-11-21T22:52:39.751Z,9.70
2022-11-21T22:55:28.181Z,9.60
2022-11-21T22:58:09.646Z,9.70
2022-11-21T23:00:57.161Z,9.60
2022-11-21T23:03:52.156Z,9.60
2022-11-21T23:06:34.936Z,9.60
2022-11-21T23:09:23.155Z,9.70
2022-11-21T23:12:04.653Z,9.70
2022-11-21T23:14:52.183Z,9.50
2022-11-21T23:17:33.584Z,9.60
2022-11-21T23:20:23.399Z,9.50
2022-11-21T23:23:06.992Z,9.30
2022-11-21T23:25:54.157Z,9.40
2022-11-21T23:28:35.628Z,9.40
2022-11-21T23:31:24.154Z,9.40
2022-11-21T23:34:12.256Z,9.40
2022-11-21T23:36:53.477Z,9.30
2022-11-21T23:39:43.584Z,9.10
2022-11-21T23:42:24.353Z,9.10
2022-11-21T23:45:12.294Z,9.10
2022-11-21T23:47:53.413Z,9.20
2022-11-21T23:50:41.245Z,9.10
2022-11-21T23:53:22.359Z,9.00
2022-11-21T23:56:11.200Z,9.00
2022-11-21T23:58:52.468Z,8.90
